Time;durP1;ratioP1;P1;durP2;ratioP2;P2;SDS_P1;SDS_P2;PMS_P1;PMS_P2;Temp;Humidity;BMP_temperature;BMP_pressure;BME280_temperature;BME280_humidity;BME280_pressure;Samples;Min_cycle;Max_cycle;Signal;HPM_P1;HPM_P2
2023/07/28 00:01:35;;;;;;;27.05;11.60;;;17.80;99.90;;;;;;4985572;28;20058;-80
2023/07/28 00:04:04;;;;;;;29.50;11.07;;;17.80;99.90;;;;;;4984738;28;20486;-80
2023/07/28 00:06:29;;;;;;;22.88;11.30;;;17.90;99.90;;;;;;4983296;28;20039;-80
2023/07/28 00:08:55;;;;;;;28.95;12.35;;;17.90;99.90;;;;;;4983370;28;20482;-80
2023/07/28 00:11:21;;;;;;;27.75;11.52;;;17.90;99.90;;;;;;4986440;28;20150;-79
2023/07/28 00:13:46;;;;;;;22.42;11.30;;;17.90;99.90;;;;;;4986605;28;20050;-80
2023/07/28 00:16:12;;;;;;;22.67;13.00;;;17.90;99.90;;;;;;4986436;28;20042;-81
2023/07/28 00:18:38;;;;;;;26.08;12.75;;;17.90;99.90;;;;;;4986475;28;20478;-80
2023/07/28 00:21:05;;;;;;;27.25;11.48;;;17.90;99.90;;;;;;4984002;28;20058;-80
2023/07/28 00:23:30;;;;;;;28.55;12.07;;;17.90;99.90;;;;;;4965456;28;20124;-80
2023/07/28 00:25:56;;;;;;;24.88;12.00;;;17.90;99.90;;;;;;4983990;28;20522;-80
2023/07/28 00:28:22;;;;;;;28.50;13.13;;;17.90;99.90;;;;;;4986028;28;20078;-80
2023/07/28 00:30:50;;;;;;;25.15;13.63;;;17.80;99.90;;;;;;4986108;28;20058;-80
2023/07/28 00:33:17;;;;;;;32.47;13.32;;;17.90;99.90;;;;;;4975217;28;20046;-80
2023/07/28 00:35:42;;;;;;;27.85;12.85;;;17.80;99.90;;;;;;4981496;28;20046;-80
2023/07/28 00:38:09;;;;;;;26.00;13.60;;;17.90;99.90;;;;;;4992851;28;20054;-80
2023/07/28 00:40:36;;;;;;;27.33;13.45;;;17.80;99.90;;;;;;4957346;28;20115;-80
2023/07/28 00:43:02;;;;;;;31.08;14.10;;;17.90;99.90;;;;;;4984242;28;20380;-80
2023/07/28 00:45:28;;;;;;;30.67;13.90;;;17.90;99.90;;;;;;4982802;28;20081;-80
2023/07/28 00:47:57;;;;;;;30.77;14.90;;;17.80;99.90;;;;;;4982492;28;20418;-80
2023/07/28 00:50:23;;;;;;;29.05;14.18;;;17.90;99.90;;;;;;4985032;28;20038;-80
2023/07/28 00:52:49;;;;;;;37.80;16.98;;;17.80;99.90;;;;;;4968330;28;20030;-80
2023/07/28 00:55:15;;;;;;;32.17;15.73;;;17.90;99.90;;;;;;4982797;28;20118;-81
2023/07/28 00:57:41;;;;;;;31.42;15.43;;;17.80;99.90;;;;;;4981930;28;20043;-80
2023/07/28 01:00:07;;;;;;;41.28;18.05;;;17.80;99.90;;;;;;4983633;28;20050;-80
2023/07/28 01:02:33;;;;;;;37.58;16.20;;;17.80;99.90;;;;;;4985320;28;20541;-80
2023/07/28 01:04:59;;;;;;;34.80;16.33;;;17.80;99.90;;;;;;4950926;28;20355;-81
2023/07/28 01:07:36;;;;;;;46.63;18.77;;;17.80;99.90;;;;;;4982036;28;20446;-80
2023/07/28 01:10:07;;;;;;;37.63;17.67;;;17.80;99.90;;;;;;4965036;28;20071;-80
2023/07/28 01:12:32;;;;;;;37.05;18.45;;;17.80;99.90;;;;;;4980264;28;20553;-81
2023/07/28 01:14:58;;;;;;;42.13;17.73;;;17.80;99.90;;;;;;4982778;28;20125;-80
2023/07/28 01:17:24;;;;;;;54.53;19.83;;;17.80;99.90;;;;;;4984739;28;20441;-80
2023/07/28 01:19:50;;;;;;;47.40;19.75;;;17.80;99.90;;;;;;4984866;28;20041;-81
2023/07/28 01:22:50;;;;;;;37.70;17.52;;;17.80;99.90;;;;;;4964848;28;20109;-80
2023/07/28 01:25:39;;;;;;;42.80;19.13;;;17.80;99.90;;;;;;4986375;28;20518;-79
2023/07/28 01:28:05;;;;;;;45.03;19.92;;;17.80;99.90;;;;;;4967633;28;20042;-80
2023/07/28 01:30:31;;;;;;;37.15;18.63;;;17.80;99.90;;;;;;4963909;28;20086;-80
2023/07/28 01:32:57;;;;;;;34.65;18.95;;;17.80;99.90;;;;;;4980892;28;20039;-80
2023/07/28 01:35:24;;;;;;;37.55;18.38;;;17.80;99.90;;;;;;4985324;28;20050;-80
2023/07/28 01:37:50;;;;;;;40.17;18.83;;;17.80;99.90;;;;;;4984840;28;20092;-80
2023/07/28 01:40:19;;;;;;;37.55;17.73;;;17.80;99.90;;;;;;4981398;28;20129;-79
2023/07/28 01:42:45;;;;;;;45.17;19.63;;;17.80;99.90;;;;;;4981505;28;20038;-79
2023/07/28 01:45:11;;;;;;;37.83;18.65;;;17.90;99.90;;;;;;4982567;28;20039;-79
2023/07/28 01:47:37;;;;;;;39.55;18.75;;;17.70;99.90;;;;;;4967220;28;20181;-80
2023/07/28 01:50:03;;;;;;;39.53;18.83;;;17.80;99.90;;;;;;4984446;28;20046;-80
2023/07/28 01:52:28;;;;;;;39.40;19.10;;;17.80;99.90;;;;;;4984075;28;20048;-80
2023/07/28 01:54:54;;;;;;;41.72;18.08;;;17.80;99.90;;;;;;4984630;28;20125;-79
2023/07/28 01:57:19;;;;;;;33.63;16.23;;;17.80;99.90;;;;;;4964236;28;20106;-80
2023/07/28 01:59:45;;;;;;;44.45;17.63;;;18.10;99.90;;;;;;4980260;28;20039;-80
2023/07/28 02:02:11;;;;;;;39.97;16.92;;;17.80;99.90;;;;;;4982355;28;20133;-80
2023/07/28 02:04:36;;;;;;;38.47;16.65;;;17.90;99.90;;;;;;4967306;28;20038;-79
2023/07/28 02:07:02;;;;;;;38.88;18.02;;;18.10;99.90;;;;;;4966328;28;20078;-79
2023/07/28 02:09:28;;;;;;;46.30;18.02;;;17.80;99.90;;;;;;4981348;28;20037;-80
2023/07/28 02:11:53;;;;;;;44.88;18.20;;;17.80;99.90;;;;;;4980961;28;20479;-79
2023/07/28 02:14:19;;;;;;;32.10;16.38;;;17.80;99.90;;;;;;4970872;28;20042;-79
2023/07/28 02:16:45;;;;;;;36.42;17.38;;;17.80;99.90;;;;;;4980858;28;20046;-79
2023/07/28 02:19:10;;;;;;;26.60;13.82;;;17.80;99.90;;;;;;4982242;28;20039;-79
2023/07/28 02:21:36;;;;;;;30.50;15.00;;;17.80;99.90;;;;;;4966322;28;20038;-79
2023/07/28 02:24:02;;;;;;;30.95;14.68;;;17.80;99.90;;;;;;4992097;28;20542;-79
2023/07/28 02:26:27;;;;;;;38.20;16.08;;;17.80;99.90;;;;;;4976896;28;20051;-79
2023/07/28 02:28:53;;;;;;;31.83;14.32;;;17.80;99.90;;;;;;4980464;28;20043;-80
2023/07/28 02:31:18;;;;;;;32.22;14.80;;;17.80;99.90;;;;;;4965324;28;20383;-79
2023/07/28 02:33:44;;;;;;;31.83;14.05;;;17.80;99.90;;;;;;4966678;28;20117;-79
2023/07/28 02:36:10;;;;;;;37.95;16.77;;;17.80;99.90;;;;;;4982531;28;20042;-80
2023/07/28 02:38:35;;;;;;;33.70;15.38;;;17.80;99.90;;;;;;4963551;28;20505;-80
2023/07/28 02:41:03;;;;;;;30.33;13.60;;;18.80;99.90;;;;;;4980343;28;20462;-79
2023/07/28 02:43:29;;;;;;;38.13;14.13;;;17.80;99.90;;;;;;4967310;28;20045;-79
2023/07/28 02:45:56;;;;;;;39.35;14.60;;;17.80;99.90;;;;;;4984267;28;20035;-79
2023/07/28 02:48:22;;;;;;;46.92;15.30;;;17.80;99.90;;;;;;4981549;28;20046;-79
2023/07/28 02:50:50;;;;;;;32.53;12.68;;;17.80;99.90;;;;;;4979855;28;20031;-80
2023/07/28 02:53:15;;;;;;;37.47;13.73;;;17.80;99.90;;;;;;4981930;28;20050;-79
2023/07/28 02:55:46;;;;;;;41.80;14.38;;;17.80;99.90;;;;;;4983386;28;20126;-79
2023/07/28 02:58:12;;;;;;;30.35;13.02;;;17.80;99.90;;;;;;4950428;28;20050;-79
2023/07/28 03:00:39;;;;;;;28.05;12.98;;;18.70;99.90;;;;;;4966612;28;20035;-79
2023/07/28 03:03:05;;;;;;;29.08;11.65;;;17.80;99.90;;;;;;4983777;28;20061;-79
2023/07/28 03:05:32;;;;;;;30.63;11.75;;;17.80;99.90;;;;;;4958953;28;20284;-79
2023/07/28 03:07:58;;;;;;;29.95;11.77;;;17.80;99.90;;;;;;4967028;28;20495;-79
2023/07/28 03:10:24;;;;;;;31.95;12.05;;;17.80;99.90;;;;;;4985571;28;20089;-79
2023/07/28 03:12:49;;;;;;;30.65;12.52;;;17.70;99.90;;;;;;4987462;28;20449;-79
2023/07/28 03:15:15;;;;;;;35.60;13.35;;;17.70;99.90;;;;;;4986606;28;20046;-79
2023/07/28 03:17:40;;;;;;;38.03;12.25;;;17.70;99.90;;;;;;4983761;28;20406;-79
2023/07/28 03:20:06;;;;;;;35.03;10.55;;;17.70;99.90;;;;;;4983983;28;20039;-80
2023/07/28 03:22:32;;;;;;;30.65;10.68;;;17.80;99.90;;;;;;4987416;28;20132;-79
2023/07/28 03:24:58;;;;;;;28.15;10.45;;;17.70;99.90;;;;;;4987050;28;20422;-79
2023/07/28 03:27:24;;;;;;;29.38;10.30;;;17.70;99.90;;;;;;4985510;28;20078;-79
2023/07/28 03:29:50;;;;;;;28.60;9.80;;;17.70;99.90;;;;;;4983627;28;20043;-79
2023/07/28 03:32:16;;;;;;;25.25;9.57;;;17.70;99.90;;;;;;4984047;28;20054;-79
2023/07/28 03:34:42;;;;;;;25.00;9.60;;;17.80;99.90;;;;;;4986870;28;20046;-79
2023/07/28 03:37:08;;;;;;;30.00;10.15;;;17.70;99.90;;;;;;4987337;28;20038;-79
2023/07/28 03:39:33;;;;;;;26.52;10.32;;;17.70;99.90;;;;;;4983488;28;20043;-79
2023/07/28 03:41:59;;;;;;;32.08;10.70;;;17.70;99.90;;;;;;4966546;28;20043;-79
2023/07/28 03:44:25;;;;;;;25.27;9.75;;;17.70;99.90;;;;;;4986781;28;20039;-79
2023/07/28 03:46:50;;;;;;;28.60;10.20;;;17.70;99.90;;;;;;4970832;28;20081;-80
2023/07/28 03:49:16;;;;;;;30.30;9.23;;;17.70;99.90;;;;;;4967468;28;20043;-80
2023/07/28 03:51:41;;;;;;;21.75;9.25;;;17.70;99.90;;;;;;4997241;28;20050;-81
2023/07/28 03:54:08;;;;;;;25.85;8.88;;;18.30;99.90;;;;;;4984366;28;20039;-80
2023/07/28 03:56:33;;;;;;;22.73;8.27;;;17.70;99.90;;;;;;4988170;28;20050;-80
2023/07/28 03:58:59;;;;;;;32.70;9.68;;;17.70;99.90;;;;;;4992468;28;20045;-81
2023/07/28 04:01:25;;;;;;;23.02;9.15;;;17.70;99.90;;;;;;4987259;28;20093;-81
2023/07/28 04:03:50;;;;;;;28.08;9.75;;;17.70;99.90;;;;;;4972618;28;20046;-80
2023/07/28 04:06:16;;;;;;;27.38;9.63;;;17.70;99.90;;;;;;4969914;28;20089;-81
2023/07/28 04:08:42;;;;;;;26.48;9.90;;;17.70;99.90;;;;;;4989353;28;20104;-82
2023/07/28 04:11:07;;;;;;;32.50;10.05;;;17.80;99.90;;;;;;4973589;28;20402;-81
2023/07/28 04:13:34;;;;;;;23.70;9.25;;;17.80;99.90;;;;;;4993475;28;20079;-81
2023/07/28 04:16:00;;;;;;;27.42;9.60;;;17.70;99.90;;;;;;4952164;28;20045;-81
2023/07/28 04:18:26;;;;;;;21.42;9.02;;;17.70;99.90;;;;;;4985919;28;20046;-81
2023/07/28 04:20:51;;;;;;;24.65;9.15;;;17.80;99.90;;;;;;4983441;28;20047;-82
2023/07/28 04:23:17;;;;;;;22.83;9.77;;;17.70;99.90;;;;;;4984432;28;20035;-81
2023/07/28 04:25:43;;;;;;;22.73;9.07;;;17.70;99.90;;;;;;4988254;28;20030;-81
2023/07/28 04:28:08;;;;;;;23.05;7.93;;;17.70;99.90;;;;;;4987450;28;20104;-81
2023/07/28 04:30:34;;;;;;;23.58;8.60;;;17.80;99.90;;;;;;4967400;28;20066;-81
2023/07/28 04:33:00;;;;;;;25.73;8.32;;;17.80;99.90;;;;;;4984675;28;20158;-80
2023/07/28 04:35:26;;;;;;;18.75;8.63;;;17.80;99.90;;;;;;4985062;28;20784;-81
2023/07/28 04:37:54;;;;;;;26.80;9.13;;;17.80;99.90;;;;;;4989657;28;20474;-81
2023/07/28 04:40:20;;;;;;;18.75;7.43;;;17.80;99.90;;;;;;4987835;28;20040;-81
2023/07/28 04:42:46;;;;;;;19.48;7.65;;;17.80;99.90;;;;;;4983969;28;20047;-80
2023/07/28 04:45:11;;;;;;;25.40;9.07;;;17.80;99.90;;;;;;4969625;28;20082;-82
2023/07/28 04:47:41;;;;;;;16.10;8.13;;;17.80;99.90;;;;;;4986464;28;20138;-81
2023/07/28 04:50:07;;;;;;;23.27;8.05;;;17.80;99.90;;;;;;4977106;28;20053;-82
2023/07/28 04:52:33;;;;;;;19.10;7.45;;;17.80;99.90;;;;;;4985634;28;20054;-81
2023/07/28 04:54:58;;;;;;;21.30;8.27;;;17.80;99.90;;;;;;4986344;28;20046;-80
2023/07/28 04:57:24;;;;;;;18.15;7.57;;;18.00;99.90;;;;;;4984971;28;20049;-81
2023/07/28 04:59:49;;;;;;;22.30;8.10;;;18.10;99.90;;;;;;4990044;28;20430;-81
2023/07/28 05:02:15;;;;;;;19.48;7.47;;;17.80;99.90;;;;;;4986721;28;20418;-81
2023/07/28 05:04:41;;;;;;;18.63;7.53;;;17.80;99.90;;;;;;4984837;28;20054;-81
2023/07/28 05:07:06;;;;;;;19.83;7.18;;;17.80;99.90;;;;;;4986115;28;20105;-82
2023/07/28 05:09:32;;;;;;;25.08;7.65;;;17.80;99.90;;;;;;4964289;28;20460;-82
2023/07/28 05:11:57;;;;;;;12.43;6.78;;;17.80;99.90;;;;;;4974420;28;20072;-81
2023/07/28 05:14:23;;;;;;;16.60;7.32;;;17.80;99.90;;;;;;4985782;28;20038;-81
2023/07/28 05:16:49;;;;;;;16.30;6.78;;;17.80;99.90;;;;;;4982063;28;20127;-81
2023/07/28 05:19:14;;;;;;;23.50;8.60;;;17.80;99.90;;;;;;4948996;28;20042;-82
2023/07/28 05:21:40;;;;;;;20.10;7.45;;;17.80;99.90;;;;;;4983656;28;20471;-82
2023/07/28 05:24:05;;;;;;;20.13;8.25;;;17.80;99.90;;;;;;4984699;28;20475;-82
2023/07/28 05:26:31;;;;;;;25.10;10.23;;;17.90;99.90;;;;;;4966871;28;20039;-81
2023/07/28 05:28:57;;;;;;;21.10;8.13;;;17.80;99.90;;;;;;4986646;28;20042;-81
2023/07/28 05:31:22;;;;;;;22.00;7.15;;;19.00;99.90;;;;;;4984278;28;20129;-81
2023/07/28 05:33:49;;;;;;;18.17;8.02;;;17.90;99.90;;;;;;4983364;28;20049;-82
2023/07/28 05:36:14;;;;;;;22.38;7.55;;;17.90;99.90;;;;;;4983130;28;20062;-81
2023/07/28 05:38:40;;;;;;;15.90;7.38;;;17.90;99.90;;;;;;4989938;28;20461;-82
2023/07/28 05:41:07;;;;;;;16.20;7.32;;;17.90;99.90;;;;;;4982041;28;20403;-82
2023/07/28 05:43:33;;;;;;;18.15;7.70;;;17.90;99.90;;;;;;4983590;28;20483;-80
2023/07/28 05:46:00;;;;;;;16.85;7.32;;;17.90;99.90;;;;;;4991470;28;20042;-81
2023/07/28 05:48:26;;;;;;;15.32;7.05;;;17.90;99.90;;;;;;4981837;28;20069;-81
2023/07/28 05:50:53;;;;;;;16.35;7.18;;;18.00;99.90;;;;;;4984747;28;20039;-82
2023/07/28 05:53:22;;;;;;;16.98;7.95;;;18.00;99.90;;;;;;4989331;28;20045;-82
2023/07/28 05:55:48;;;;;;;14.93;7.22;;;18.00;99.90;;;;;;4993630;28;20064;-82
2023/07/28 05:58:14;;;;;;;16.50;7.25;;;18.10;99.90;;;;;;4969338;28;20180;-82
2023/07/28 06:00:40;;;;;;;13.30;7.15;;;18.00;99.90;;;;;;4981996;28;20501;-82
2023/07/28 06:03:12;;;;;;;10.65;7.15;;;18.00;99.90;;;;;;4981882;28;20062;-82
2023/07/28 06:05:40;;;;;;;13.85;7.85;;;18.00;99.90;;;;;;4984517;28;20042;-82
2023/07/28 06:08:06;;;;;;;15.07;8.10;;;18.00;99.90;;;;;;4967141;28;20112;-83
2023/07/28 06:10:32;;;;;;;10.25;8.00;;;18.00;99.90;;;;;;4966724;28;20565;-82
2023/07/28 06:12:58;;;;;;;13.52;9.32;;;18.00;99.90;;;;;;4959918;28;20138;-82
2023/07/28 06:15:24;;;;;;;10.35;7.95;;;18.00;99.90;;;;;;4984528;28;20478;-81
2023/07/28 06:17:49;;;;;;;14.60;8.15;;;18.00;99.90;;;;;;4981309;28;20046;-82
2023/07/28 06:20:15;;;;;;;10.75;8.02;;;18.00;99.90;;;;;;4980108;28;20376;-82
2023/07/28 06:22:41;;;;;;;12.57;7.85;;;18.00;99.90;;;;;;4964650;28;20046;-82
2023/07/28 06:25:07;;;;;;;15.80;9.57;;;18.00;99.90;;;;;;4984254;28;20034;-82
2023/07/28 06:27:32;;;;;;;12.85;9.00;;;18.00;99.90;;;;;;4965841;28;20438;-82
2023/07/28 06:29:58;;;;;;;10.98;8.90;;;18.00;99.90;;;;;;4963162;28;20085;-81
2023/07/28 06:32:24;;;;;;;11.98;9.38;;;18.00;99.90;;;;;;4980242;28;20047;-81
2023/07/28 06:34:50;;;;;;;13.27;9.80;;;18.00;99.90;;;;;;4948960;28;20053;-81
2023/07/28 06:37:16;;;;;;;13.73;9.57;;;18.00;99.90;;;;;;4983889;28;20101;-82
2023/07/28 06:39:41;;;;;;;13.15;9.75;;;18.00;99.90;;;;;;4982479;28;20050;-81
2023/07/28 06:42:07;;;;;;;11.35;8.98;;;18.10;99.90;;;;;;4980017;28;20463;-82
2023/07/28 06:44:33;;;;;;;13.52;8.82;;;18.10;99.90;;;;;;4980694;28;20135;-82
2023/07/28 06:46:59;;;;;;;12.55;9.00;;;18.10;99.90;;;;;;4966359;28;20074;-81
2023/07/28 06:49:24;;;;;;;10.10;9.02;;;18.20;99.90;;;;;;4982862;28;20097;-81
2023/07/28 06:51:50;;;;;;;11.80;8.90;;;18.20;99.90;;;;;;4981587;28;20400;-79
2023/07/28 06:54:15;;;;;;;9.82;8.82;;;18.10;99.90;;;;;;4980310;28;20046;-79
2023/07/28 06:56:41;;;;;;;8.90;7.40;;;18.10;99.90;;;;;;4981288;28;20070;-79
2023/07/28 06:59:07;;;;;;;10.90;7.82;;;18.10;99.90;;;;;;4966369;28;20487;-81
2023/07/28 07:01:33;;;;;;;8.32;7.53;;;18.10;99.90;;;;;;4983377;28;20260;-82
2023/07/28 07:04:00;;;;;;;9.23;8.00;;;18.10;99.90;;;;;;4979741;28;20043;-82
2023/07/28 07:06:26;;;;;;;9.98;8.80;;;18.10;99.90;;;;;;4980340;28;20087;-82
2023/07/28 07:08:52;;;;;;;13.20;9.13;;;18.10;99.90;;;;;;4981584;28;20086;-81
2023/07/28 07:11:18;;;;;;;10.82;9.27;;;18.20;99.90;;;;;;4966148;28;20125;-81
2023/07/28 07:13:44;;;;;;;10.13;8.90;;;18.10;99.90;;;;;;4983202;28;20120;-81
2023/07/28 07:16:16;;;;;;;12.93;9.45;;;18.10;99.90;;;;;;4979997;28;20097;-81
2023/07/28 07:18:45;;;;;;;9.32;8.43;;;18.10;99.90;;;;;;4981088;28;20047;-81
2023/07/28 07:21:11;;;;;;;9.45;7.85;;;18.10;99.90;;;;;;4983736;28;20045;-81
2023/07/28 07:23:37;;;;;;;10.48;9.18;;;18.10;99.90;;;;;;4982720;28;20050;-81
2023/07/28 07:26:03;;;;;;;9.90;8.55;;;18.10;99.90;;;;;;4972198;28;20487;-81
2023/07/28 07:28:29;;;;;;;8.82;7.93;;;18.20;99.90;;;;;;4980297;28;20051;-81
2023/07/28 07:30:57;;;;;;;14.75;9.38;;;18.20;99.90;;;;;;4964121;28;20054;-81
2023/07/28 07:33:24;;;;;;;13.13;9.23;;;18.70;99.90;;;;;;4983561;28;20039;-81
2023/07/28 07:35:50;;;;;;;10.00;8.98;;;18.20;99.90;;;;;;4982193;28;20047;-80
2023/07/28 07:38:15;;;;;;;9.07;8.18;;;18.20;99.90;;;;;;4982207;28;20103;-82
2023/07/28 07:40:41;;;;;;;12.43;8.68;;;18.30;99.90;;;;;;4971003;28;20082;-82
2023/07/28 07:43:06;;;;;;;9.45;8.18;;;18.30;99.90;;;;;;4984691;28;20038;-81
2023/07/28 07:45:32;;;;;;;8.85;7.72;;;18.30;99.90;;;;;;4986209;28;20034;-81
2023/07/28 07:47:59;;;;;;;10.98;8.68;;;18.30;99.90;;;;;;4967093;28;20085;-81
2023/07/28 07:50:24;;;;;;;13.57;8.80;;;18.40;99.90;;;;;;4983482;28;20126;-82
2023/07/28 07:52:50;;;;;;;8.35;7.53;;;18.40;99.90;;;;;;4984109;28;20127;-81
2023/07/28 07:55:16;;;;;;;11.65;7.90;;;18.40;99.90;;;;;;4969387;28;20100;-81
2023/07/28 07:57:41;;;;;;;11.77;8.68;;;18.40;99.90;;;;;;4969248;28;20084;-82
2023/07/28 08:00:08;;;;;;;9.10;8.20;;;18.40;99.90;;;;;;4974718;28;20039;-81
2023/07/28 08:02:34;;;;;;;9.23;7.68;;;18.40;99.90;;;;;;4983539;28;20138;-82
2023/07/28 08:05:00;;;;;;;9.95;7.15;;;18.40;99.90;;;;;;4984910;28;20039;-81
2023/07/28 08:07:26;;;;;;;8.50;7.43;;;18.50;99.90;;;;;;4969380;28;20101;-81
2023/07/28 08:09:52;;;;;;;6.78;6.18;;;18.50;99.90;;;;;;4985109;28;20044;-81
2023/07/28 08:12:17;;;;;;;9.13;6.50;;;18.60;99.90;;;;;;4982457;28;20443;-81
2023/07/28 08:14:43;;;;;;;6.50;5.90;;;18.60;99.90;;;;;;4983342;28;20038;-81
2023/07/28 08:17:09;;;;;;;9.77;6.55;;;18.60;99.90;;;;;;4970356;28;20042;-81
2023/07/28 08:19:35;;;;;;;6.75;6.00;;;18.60;99.90;;;;;;4985538;28;20070;-80
2023/07/28 08:22:03;;;;;;;6.60;5.90;;;18.70;99.90;;;;;;4966853;28;20050;-82
2023/07/28 08:24:29;;;;;;;9.07;6.65;;;18.70;99.90;;;;;;4982787;28;20050;-81
2023/07/28 08:26:55;;;;;;;9.13;5.85;;;18.80;99.90;;;;;;4983744;28;20081;-81
2023/07/28 08:29:20;;;;;;;6.53;5.93;;;19.00;99.90;;;;;;4986179;28;20550;-81
2023/07/28 08:31:46;;;;;;;6.25;5.75;;;18.80;99.90;;;;;;4986264;28;20046;-81
2023/07/28 08:34:12;;;;;;;6.18;4.85;;;18.90;99.90;;;;;;4964765;28;20042;-81
2023/07/28 08:36:38;;;;;;;9.13;5.13;;;18.80;99.90;;;;;;4982733;28;20400;-81
2023/07/28 08:39:05;;;;;;;6.38;4.72;;;18.90;99.90;;;;;;4984679;28;20039;-81
2023/07/28 08:41:30;;;;;;;7.40;4.95;;;18.90;99.90;;;;;;4968264;28;20046;-81
2023/07/28 08:43:57;;;;;;;6.43;4.78;;;19.00;99.90;;;;;;4968467;28;20053;-81
2023/07/28 08:46:23;;;;;;;6.28;4.45;;;19.20;99.90;;;;;;4985953;28;20066;-80
2023/07/28 08:48:49;;;;;;;10.40;4.30;;;19.30;99.90;;;;;;4985244;28;20073;-81
2023/07/28 08:51:14;;;;;;;5.70;4.00;;;19.30;99.90;;;;;;4982372;28;20130;-82
2023/07/28 08:53:40;;;;;;;6.57;3.75;;;19.40;99.90;;;;;;4965016;28;20121;-81
2023/07/28 08:56:06;;;;;;;3.28;2.95;;;19.40;99.90;;;;;;4983094;28;20479;-81
2023/07/28 08:58:33;;;;;;;4.70;3.22;;;19.40;99.90;;;;;;4985908;28;20035;-81
2023/07/28 09:01:01;;;;;;;3.70;3.40;;;19.50;99.90;;;;;;4985597;28;20105;-82
2023/07/28 09:03:27;;;;;;;4.13;3.58;;;19.50;99.90;;;;;;4985126;28;20043;-81
2023/07/28 09:06:02;;;;;;;3.63;3.20;;;19.40;99.90;;;;;;4985399;28;20042;-81
2023/07/28 09:08:30;;;;;;;6.13;3.03;;;19.60;99.90;;;;;;4981567;28;20038;-80
2023/07/28 09:10:56;;;;;;;7.32;3.20;;;19.60;99.90;;;;;;4982706;28;20054;-81
2023/07/28 09:13:21;;;;;;;4.47;3.25;;;19.60;99.90;;;;;;4968276;28;20544;-81
2023/07/28 09:15:47;;;;;;;3.15;2.80;;;19.70;99.90;;;;;;4984646;28;20038;-81
2023/07/28 09:18:16;;;;;;;3.83;2.17;;;19.80;99.90;;;;;;4982741;28;20035;-81
2023/07/28 09:20:43;;;;;;;4.50;2.92;;;19.90;99.90;;;;;;4981839;28;20090;-81
2023/07/28 09:23:10;;;;;;;5.28;2.05;;;19.90;99.90;;;;;;4985858;28;20047;-81
2023/07/28 09:25:37;;;;;;;3.20;1.70;;;20.00;99.90;;;;;;4994173;28;20046;-80
2023/07/28 09:28:03;;;;;;;2.30;2.08;;;20.00;99.90;;;;;;4986903;28;20049;-82
2023/07/28 09:30:44;;;;;;;6.25;2.38;;;20.10;99.90;;;;;;4980986;28;20114;-83
2023/07/28 09:33:10;;;;;;;3.55;2.28;;;20.10;99.90;;;;;;4983820;28;20047;-82
2023/07/28 09:35:50;;;;;;;3.63;1.95;;;20.10;99.90;;;;;;4985028;28;20735;-82
2023/07/28 09:38:16;;;;;;;2.03;1.92;;;20.10;99.90;;;;;;4981237;28;20557;-82
2023/07/28 09:40:43;;;;;;;5.68;2.47;;;20.00;99.90;;;;;;4981698;28;20465;-82
2023/07/28 09:43:10;;;;;;;2.47;2.30;;;20.10;99.90;;;;;;4983297;28;20074;-81
2023/07/28 09:45:36;;;;;;;2.72;2.47;;;20.10;99.90;;;;;;4984116;28;20391;-82
2023/07/28 09:48:04;;;;;;;4.75;2.15;;;20.20;99.90;;;;;;4984723;28;20057;-81
2023/07/28 09:50:32;;;;;;;5.50;2.53;;;20.10;99.90;;;;;;4983704;28;20053;-81
2023/07/28 09:53:02;;;;;;;3.70;2.40;;;20.20;99.90;;;;;;4984605;28;20030;-79
2023/07/28 09:55:29;;;;;;;2.47;2.20;;;20.20;99.90;;;;;;4964221;28;20053;-79
2023/07/28 09:57:58;;;;;;;2.13;1.95;;;20.10;99.90;;;;;;4980648;28;20177;-79
2023/07/28 10:00:25;;;;;;;5.25;2.00;;;20.10;99.90;;;;;;4955802;28;20431;-79
2023/07/28 10:02:50;;;;;;;2.97;2.03;;;20.10;99.90;;;;;;4981155;28;20127;-80
2023/07/28 10:05:16;;;;;;;2.90;1.80;;;20.10;99.90;;;;;;4982756;28;20074;-79
2023/07/28 10:07:44;;;;;;;4.75;1.83;;;20.10;99.90;;;;;;4984700;28;20558;-82
2023/07/28 10:10:14;;;;;;;5.38;2.25;;;20.10;99.90;;;;;;4982850;28;20053;-82
2023/07/28 10:12:48;;;;;;;1.77;1.48;;;20.20;99.90;;;;;;4980633;28;20093;-81
2023/07/28 10:15:16;;;;;;;4.10;1.70;;;20.30;99.90;;;;;;4982697;28;20078;-80
2023/07/28 10:17:54;;;;;;;2.20;1.77;;;20.40;99.90;;;;;;4984279;28;20046;-81
2023/07/28 10:20:32;;;;;;;4.03;1.50;;;20.50;99.90;;;;;;4981156;28;20069;-80
2023/07/28 10:23:11;;;;;;;2.38;1.30;;;20.60;99.90;;;;;;4981215;28;20132;-79
2023/07/28 10:25:38;;;;;;;4.07;1.50;;;20.70;99.90;;;;;;4974016;28;20027;-80
2023/07/28 10:28:05;;;;;;;3.10;1.70;;;20.80;99.90;;;;;;4980844;28;20047;-80
2023/07/28 10:30:50;;;;;;;4.50;1.63;;;20.80;99.90;;;;;;4984027;28;20046;-80
2023/07/28 10:33:36;;;;;;;3.25;1.48;;;20.90;99.90;;;;;;4964328;28;20050;-80
2023/07/28 10:36:15;;;;;;;2.63;1.10;;;21.00;99.90;;;;;;4981208;28;20043;-81
2023/07/28 10:38:43;;;;;;;3.10;1.63;;;21.00;99.90;;;;;;4956927;28;20042;-79
2023/07/28 10:41:15;;;;;;;2.63;1.15;;;21.00;99.90;;;;;;4980388;28;20059;-80
2023/07/28 10:43:41;;;;;;;1.55;1.40;;;21.00;99.90;;;;;;4966733;28;20130;-80
2023/07/28 10:46:09;;;;;;;5.70;1.40;;;21.00;99.90;;;;;;4983788;28;20053;-80
2023/07/28 10:48:46;;;;;;;4.93;2.00;;;21.10;99.90;;;;;;4980134;28;20039;-80
2023/07/28 10:51:19;;;;;;;2.42;1.48;;;21.10;99.90;;;;;;4964114;28;20087;-79
2023/07/28 10:53:45;;;;;;;3.80;1.33;;;21.00;99.90;;;;;;4984082;28;20046;-80
2023/07/28 10:56:11;;;;;;;3.53;1.30;;;21.00;99.90;;;;;;4965833;28;20402;-79
2023/07/28 10:58:37;;;;;;;5.53;1.95;;;21.10;99.90;;;;;;4980663;28;20042;-80
2023/07/28 11:01:03;;;;;;;3.80;2.33;;;21.10;99.90;;;;;;4979746;28;20077;-80
2023/07/28 11:03:28;;;;;;;3.95;1.95;;;21.10;99.90;;;;;;4983223;28;20050;-80
2023/07/28 11:05:56;;;;;;;5.28;1.38;;;21.10;99.90;;;;;;4984421;28;20026;-80
2023/07/28 11:08:22;;;;;;;2.08;1.48;;;21.10;99.90;;;;;;4972303;28;20054;-80
2023/07/28 11:10:47;;;;;;;5.13;1.60;;;21.10;99.90;;;;;;4986543;28;20104;-81
2023/07/28 11:13:13;;;;;;;3.10;1.08;;;21.10;99.90;;;;;;4964379;28;20043;-81
2023/07/28 11:15:39;;;;;;;2.63;1.40;;;21.20;99.90;;;;;;4965530;28;20125;-81
2023/07/28 11:18:05;;;;;;;4.05;1.55;;;21.20;99.90;;;;;;4976559;28;20042;-80
2023/07/28 11:20:30;;;;;;;3.50;1.58;;;21.30;99.90;;;;;;4985384;28;20475;-81
2023/07/28 11:23:03;;;;;;;2.15;1.45;;;21.50;99.90;;;;;;4969637;28;20046;-80
2023/07/28 11:25:30;;;;;;;4.55;1.40;;;21.50;99.90;;;;;;4985533;28;20038;-81
2023/07/28 11:27:56;;;;;;;4.90;1.33;;;21.50;99.90;;;;;;4984420;28;20042;-80
2023/07/28 11:30:22;;;;;;;3.10;1.13;;;21.60;99.90;;;;;;4984372;28;20049;-80
2023/07/28 11:32:50;;;;;;;2.38;1.42;;;21.70;99.90;;;;;;4987239;28;20046;-80
2023/07/28 11:35:17;;;;;;;1.63;1.33;;;21.80;99.90;;;;;;4987091;28;20449;-81
2023/07/28 11:37:46;;;;;;;5.13;1.20;;;21.90;99.90;;;;;;4983082;28;20521;-81
2023/07/28 11:40:14;;;;;;;1.48;1.13;;;21.90;99.90;;;;;;4983743;28;20043;-81
2023/07/28 11:42:48;;;;;;;1.35;0.80;;;21.90;99.90;;;;;;4987281;28;20125;-80
2023/07/28 11:45:15;;;;;;;;;;;21.90;99.90;;;;;;4987287;28;20081;-81
2023/07/28 11:47:55;;;;;;;6.15;0.95;;;21.90;99.90;;;;;;4986319;28;19917;-82
2023/07/28 11:50:28;;;;;;;1.80;1.10;;;21.80;99.90;;;;;;4983802;28;20039;-82
2023/07/28 11:52:54;;;;;;;2.90;0.80;;;21.80;99.90;;;;;;4987270;28;20037;-82
2023/07/28 11:55:21;;;;;;;2.35;1.00;;;21.80;99.90;;;;;;4969340;28;20061;-82
2023/07/28 11:57:47;;;;;;;1.30;0.85;;;21.90;99.90;;;;;;4982915;28;20057;-82
2023/07/28 12:00:16;;;;;;;1.65;0.80;;;22.00;99.90;;;;;;4983361;28;20059;-82
2023/07/28 12:02:42;;;;;;;1.50;0.90;;;22.20;99.90;;;;;;4968852;28;20112;-82
2023/07/28 12:05:15;;;;;;;1.92;1.05;;;22.40;99.90;;;;;;4991648;28;20458;-82
2023/07/28 12:07:47;;;;;;;0.40;0.40;;;22.60;99.90;;;;;;4986506;28;20038;-81
2023/07/28 12:10:13;;;;;;;1.60;0.57;;;22.70;99.90;;;;;;4986574;28;20125;-81
2023/07/28 12:12:46;;;;;;;2.17;0.85;;;22.80;99.90;;;;;;4983589;28;20038;-81
2023/07/28 12:15:26;;;;;;;4.00;1.08;;;22.90;99.90;;;;;;4983206;28;20043;-81
2023/07/28 12:18:15;;;;;;;4.93;2.45;;;22.90;99.90;;;;;;4976393;28;20043;-81
2023/07/28 12:20:46;;;;;;;3.42;0.85;;;22.90;99.90;;;;;;4985434;28;20611;-82
2023/07/28 12:23:13;;;;;;;2.60;1.15;;;22.80;99.90;;;;;;4992754;28;20495;-81
2023/07/28 12:25:39;;;;;;;1.23;0.80;;;22.80;99.90;;;;;;4984662;28;20055;-81
2023/07/28 12:28:05;;;;;;;3.08;0.88;;;22.80;99.90;;;;;;4986561;28;20060;-81
2023/07/28 12:30:32;;;;;;;0.90;0.90;;;22.80;99.90;;;;;;4985094;28;20081;-82
2023/07/28 12:32:58;;;;;;;0.88;0.80;;;22.80;99.90;;;;;;4982664;28;20042;-81
2023/07/28 12:35:24;;;;;;;1.30;0.73;;;22.70;99.90;;;;;;4983174;28;20458;-81
2023/07/28 12:37:51;;;;;;;1.52;0.80;;;22.70;99.90;;;;;;4974900;28;20046;-81